createdAt,value
2023-05-08T00:02:15.044Z,7.35
2023-05-08T00:04:42.223Z,7.40
2023-05-08T00:07:09.628Z,7.50
2023-05-08T00:09:36.755Z,7.35
2023-05-08T00:12:04.135Z,7.03
2023-05-08T00:14:31.340Z,7.68
2023-05-08T00:16:58.536Z,7.07
2023-05-08T00:19:26.035Z,7.82
2023-05-08T00:21:53.233Z,7.22
2023-05-08T00:24:20.398Z,7.35
2023-05-08T00:26:48.297Z,7.07
2023-05-08T00:29:15.575Z,7.40
2023-05-08T00:31:42.783Z,7.75
2023-05-08T00:34:10.004Z,7.45
2023-05-08T00:36:37.096Z,7.43
2023-05-08T00:39:04.249Z,7.72
2023-05-08T00:41:31.505Z,8.05
2023-05-08T00:43:58.667Z,8.18
2023-05-08T00:46:26.268Z,6.93
2023-05-08T00:48:54.033Z,7.65
2023-05-08T00:51:22.244Z,7.50
2023-05-08T00:53:49.703Z,8.07
2023-05-08T00:56:17.454Z,7.75
2023-05-08T00:58:45.982Z,7.70
2023-05-08T01:01:13.290Z,7.25
2023-05-08T01:03:41.365Z,8.40
2023-05-08T01:06:08.907Z,7.78
2023-05-08T01:08:36.210Z,8.52
2023-05-08T01:11:25.427Z,7.88
2023-05-08T01:14:16.490Z,8.93
2023-05-08T01:17:08.142Z,8.27
2023-05-08T01:20:04.888Z,7.90
2023-05-08T01:23:05.588Z,7.93
2023-05-08T01:25:55.881Z,8.13
2023-05-08T01:28:47.349Z,8.05
2023-05-08T01:31:23.344Z,7.95
2023-05-08T01:33:57.236Z,7.78
2023-05-08T01:36:40.327Z,8.18
2023-05-08T01:39:54.044Z,7.30
2023-05-08T01:42:24.150Z,7.70
2023-05-08T01:45:00.282Z,7.55
2023-05-08T01:47:31.250Z,7.63
2023-05-08T01:50:07.809Z,7.88
2023-05-08T01:52:45.726Z,7.72
2023-05-08T01:55:20.770Z,7.72
2023-05-08T01:57:52.578Z,8.07
2023-05-08T02:00:22.638Z,8.57
2023-05-08T02:02:51.721Z,8.40
2023-05-08T02:05:21.720Z,7.15
2023-05-08T02:07:52.329Z,7.65
2023-05-08T02:10:21.003Z,7.07
2023-05-08T02:12:50.286Z,7.10
2023-05-08T02:15:20.423Z,6.25
2023-05-08T02:17:50.684Z,7.47
2023-05-08T02:20:20.692Z,6.30
2023-05-08T02:22:51.836Z,7.30
2023-05-08T02:25:19.866Z,6.90
2023-05-08T02:27:50.090Z,7.15
2023-05-08T02:30:19.170Z,6.57
2023-05-08T02:32:50.131Z,7.28
2023-05-08T02:35:19.780Z,6.95
2023-05-08T02:37:55.641Z,7.22
2023-05-08T02:40:25.371Z,6.55
2023-05-08T02:42:52.877Z,6.30
2023-05-08T02:45:20.605Z,6.63
2023-05-08T02:47:51.543Z,7.57
2023-05-08T02:50:27.718Z,6.28
2023-05-08T02:53:03.480Z,6.80
2023-05-08T02:55:53.366Z,7.20
2023-05-08T02:58:55.984Z,6.72
2023-05-08T03:01:42.403Z,7.00
2023-05-08T03:04:13.067Z,6.22
2023-05-08T03:06:47.319Z,7.28
2023-05-08T03:09:21.502Z,7.53
2023-05-08T03:11:53.943Z,7.03
2023-05-08T03:14:25.314Z,6.47
2023-05-08T03:16:56.207Z,6.85
2023-05-08T03:19:28.781Z,6.50
2023-05-08T03:21:58.570Z,7.50
2023-05-08T03:24:28.527Z,7.20
2023-05-08T03:26:57.570Z,7.45
2023-05-08T03:29:26.071Z,6.95
2023-05-08T03:31:54.731Z,7.07
2023-05-08T03:34:24.194Z,7.65
2023-05-08T03:36:52.161Z,6.60
2023-05-08T03:39:19.540Z,6.90
2023-05-08T03:41:48.500Z,7.63
2023-05-08T03:44:18.570Z,7.88
2023-05-08T03:46:51.347Z,6.80
2023-05-08T03:49:20.603Z,6.85
2023-05-08T03:51:48.574Z,6.90
2023-05-08T03:54:15.743Z,6.90
2023-05-08T03:56:46.376Z,7.07
2023-05-08T03:59:44.747Z,6.80
2023-05-08T04:02:21.554Z,6.93
2023-05-08T04:04:55.838Z,6.55
2023-05-08T04:07:43.352Z,7.00
2023-05-08T04:10:17.248Z,7.13
2023-05-08T04:13:02.815Z,6.88
2023-05-08T04:15:31.979Z,7.40
2023-05-08T04:18:08.570Z,6.40
2023-05-08T04:20:41.690Z,6.13
2023-05-08T04:23:12.021Z,6.85
2023-05-08T04:25:41.571Z,6.85
2023-05-08T04:28:09.425Z,6.60
2023-05-08T04:30:37.742Z,6.80
2023-05-08T04:33:06.526Z,6.57
2023-05-08T04:35:34.746Z,7.60
2023-05-08T04:38:03.429Z,6.68
2023-05-08T04:40:31.114Z,6.35
2023-05-08T04:42:58.896Z,7.28
2023-05-08T04:45:27.292Z,6.82
2023-05-08T04:48:01.644Z,6.60
2023-05-08T04:50:29.116Z,6.82
2023-05-08T04:52:56.238Z,6.80
2023-05-08T04:55:23.570Z,6.38
2023-05-08T04:57:50.855Z,7.15
2023-05-08T05:00:18.955Z,6.80
2023-05-08T05:02:47.261Z,7.30
2023-05-08T05:05:14.978Z,6.75
2023-05-08T05:07:42.455Z,7.13
2023-05-08T05:10:11.291Z,7.20
2023-05-08T05:12:38.897Z,6.80
2023-05-08T05:15:06.924Z,6.57
2023-05-08T05:17:36.757Z,6.60
2023-05-08T05:20:06.365Z,6.40
2023-05-08T05:22:33.763Z,6.93
2023-05-08T05:25:01.361Z,7.07
2023-05-08T05:27:29.137Z,6.78
2023-05-08T05:29:56.369Z,7.18
2023-05-08T05:32:23.519Z,7.28
2023-05-08T05:34:51.533Z,6.38
2023-05-08T05:37:18.717Z,5.85
2023-05-08T05:39:45.963Z,7.05
2023-05-08T05:42:13.178Z,6.38
2023-05-08T05:44:40.565Z,7.30
2023-05-08T05:47:10.615Z,6.97
2023-05-08T05:49:43.280Z,6.70
2023-05-08T05:52:11.094Z,7.03
2023-05-08T05:54:38.476Z,7.18
2023-05-08T05:57:06.074Z,6.72
2023-05-08T05:59:33.466Z,6.90
2023-05-08T06:02:00.754Z,6.32
2023-05-08T06:04:28.166Z,7.25
2023-05-08T06:06:55.377Z,6.88
2023-05-08T06:09:22.543Z,7.30
2023-05-08T06:11:52.054Z,6.97
2023-05-08T06:14:19.385Z,7.20
2023-05-08T06:16:46.599Z,6.50
2023-05-08T06:19:13.919Z,7.35
2023-05-08T06:21:41.315Z,7.88
2023-05-08T06:24:08.850Z,7.15
2023-05-08T06:26:36.033Z,7.28
2023-05-08T06:29:03.213Z,7.50
2023-05-08T06:31:30.429Z,7.20
2023-05-08T06:33:57.836Z,6.78
2023-05-08T06:36:25.096Z,6.93
2023-05-08T06:38:52.293Z,6.75
2023-05-08T06:41:19.401Z,7.13
2023-05-08T06:43:46.623Z,7.55
2023-05-08T06:46:13.899Z,7.05
2023-05-08T06:48:41.605Z,6.95
2023-05-08T06:51:08.914Z,7.22
2023-05-08T06:53:36.167Z,7.00
2023-05-08T06:56:03.279Z,6.97
2023-05-08T06:58:32.617Z,6.80
2023-05-08T07:01:03.574Z,7.15
2023-05-08T07:03:31.213Z,7.40
2023-05-08T07:05:58.388Z,7.53
2023-05-08T07:08:26.348Z,7.63
2023-05-08T07:10:54.112Z,7.65
2023-05-08T07:13:22.672Z,7.10
2023-05-08T07:15:50.081Z,7.60
2023-05-08T07:18:17.465Z,7.63
2023-05-08T07:20:44.825Z,6.90
2023-05-08T07:23:11.985Z,7.63
2023-05-08T07:25:39.552Z,7.35
2023-05-08T07:28:06.915Z,7.93
2023-05-08T07:30:34.207Z,7.28
2023-05-08T07:33:01.716Z,7.85
2023-05-08T07:35:29.897Z,7.63
2023-05-08T07:37:57.041Z,7.72
2023-05-08T07:40:24.318Z,8.20
2023-05-08T07:42:51.511Z,7.63
2023-05-08T07:45:18.778Z,8.43
2023-05-08T07:47:56.243Z,7.75
2023-05-08T07:50:26.944Z,8.43
2023-05-08T07:52:54.353Z,7.82
2023-05-08T07:55:21.953Z,8.00
2023-05-08T07:57:49.249Z,8.55
2023-05-08T08:00:17.092Z,8.30
2023-05-08T08:02:45.886Z,7.90
2023-05-08T08:05:13.466Z,8.50
2023-05-08T08:07:40.884Z,8.05
2023-05-08T08:10:08.880Z,8.50
2023-05-08T08:12:36.574Z,7.90
2023-05-08T08:15:04.257Z,9.10
2023-05-08T08:17:31.600Z,8.23
2023-05-08T08:19:58.752Z,7.97
2023-05-08T08:22:26.869Z,8.75
2023-05-08T08:24:56.120Z,8.70
2023-05-08T08:27:24.193Z,8.57
2023-05-08T08:29:56.295Z,8.00
2023-05-08T08:32:26.085Z,8.20
2023-05-08T08:34:53.233Z,8.88
2023-05-08T08:37:20.451Z,8.13
2023-05-08T08:39:48.816Z,8.82
2023-05-08T08:42:16.063Z,8.00
2023-05-08T08:44:43.521Z,8.75
2023-05-08T08:47:14.804Z,8.35
2023-05-08T08:49:48.116Z,8.82
2023-05-08T08:52:32.598Z,8.95
2023-05-08T08:55:03.637Z,8.63
2023-05-08T08:57:34.668Z,8.70
2023-05-08T09:00:05.657Z,9.00
2023-05-08T09:02:33.193Z,8.27
2023-05-08T09:05:01.257Z,8.65
2023-05-08T09:07:30.466Z,7.93
2023-05-08T09:09:57.892Z,8.27
2023-05-08T09:12:25.376Z,8.90
2023-05-08T09:14:52.652Z,9.73
2023-05-08T09:17:19.841Z,9.00
2023-05-08T09:19:50.187Z,9.65
2023-05-08T09:22:17.880Z,9.13
2023-05-08T09:25:01.240Z,8.45
2023-05-08T09:27:31.139Z,8.90
2023-05-08T09:30:07.692Z,9.18
2023-05-08T09:32:38.547Z,9.18
2023-05-08T09:35:07.922Z,9.57
2023-05-08T09:37:43.483Z,10.30
2023-05-08T09:40:21.330Z,9.90
2023-05-08T09:42:51.272Z,9.25
2023-05-08T09:45:30.082Z,10.20
2023-05-08T09:47:57.719Z,9.90
2023-05-08T09:50:26.241Z,10.25
2023-05-08T09:52:53.567Z,10.90
2023-05-08T09:55:20.868Z,10.23
2023-05-08T09:57:55.310Z,10.50
2023-05-08T10:00:23.348Z,10.15
2023-05-08T10:03:03.988Z,11.10
2023-05-08T10:05:36.891Z,12.00
2023-05-08T10:08:24.356Z,10.48
2023-05-08T10:10:51.536Z,10.85
2023-05-08T10:13:18.703Z,10.90
2023-05-08T10:15:46.182Z,10.27
2023-05-08T10:18:18.084Z,10.43
2023-05-08T10:20:48.357Z,9.43
2023-05-08T10:23:17.900Z,11.02
2023-05-08T10:25:49.534Z,9.93
2023-05-08T10:28:19.694Z,9.73
2023-05-08T10:30:50.917Z,10.38
2023-05-08T10:33:21.818Z,10.85
2023-05-08T10:35:49.420Z,10.25
2023-05-08T10:38:17.582Z,9.95
2023-05-08T10:40:45.431Z,11.10
2023-05-08T10:43:13.010Z,10.73
2023-05-08T10:45:40.635Z,9.80
2023-05-08T10:48:48.548Z,10.15
2023-05-08T10:51:38.937Z,10.23
2023-05-08T10:54:13.260Z,10.73
2023-05-08T10:56:43.529Z,10.57
2023-05-08T10:59:20.047Z,9.77
2023-05-08T11:01:50.589Z,10.02
2023-05-08T11:04:22.869Z,9.60
2023-05-08T11:06:53.557Z,8.18
2023-05-08T11:09:22.613Z,10.00
2023-05-08T11:12:24.468Z,9.77
2023-05-08T11:15:03.663Z,9.63
2023-05-08T11:17:31.003Z,9.90
2023-05-08T11:20:07.325Z,9.93
2023-05-08T11:22:37.477Z,9.98
2023-05-08T11:25:10.263Z,10.02
2023-05-08T11:28:02.281Z,10.45
2023-05-08T11:30:37.753Z,9.65
2023-05-08T11:33:05.618Z,10.43
2023-05-08T11:35:53.806Z,10.00
2023-05-08T11:38:26.784Z,9.90
2023-05-08T11:41:02.850Z,10.35
2023-05-08T11:43:42.034Z,8.80
2023-05-08T11:46:17.981Z,10.23
2023-05-08T11:48:45.601Z,10.38
2023-05-08T11:51:14.287Z,10.88
2023-05-08T11:53:41.706Z,9.50
2023-05-08T11:56:09.634Z,9.98
2023-05-08T11:58:37.127Z,10.27
2023-05-08T12:01:04.524Z,9.80
2023-05-08T12:03:32.085Z,9.52
2023-05-08T12:06:00.681Z,9.35
2023-05-08T12:08:31.715Z,9.90
2023-05-08T12:10:59.037Z,9.73
2023-05-08T12:13:30.737Z,9.82
2023-05-08T12:16:00.581Z,10.17
2023-05-08T12:18:29.567Z,9.80
2023-05-08T12:21:01.362Z,9.60
2023-05-08T12:23:30.209Z,9.87
2023-05-08T12:26:02.059Z,9.85
2023-05-08T12:28:29.951Z,9.30
2023-05-08T12:30:57.376Z,9.00
2023-05-08T12:33:25.344Z,9.52
2023-05-08T12:35:52.628Z,9.07
2023-05-08T12:38:19.961Z,9.30
2023-05-08T12:40:53.408Z,9.40
2023-05-08T12:43:20.732Z,8.82
2023-05-08T12:45:52.916Z,9.00
2023-05-08T12:48:20.910Z,9.60
2023-05-08T12:50:48.030Z,8.90
2023-05-08T12:53:18.184Z,9.73
2023-05-08T12:55:58.367Z,9.57
2023-05-08T12:58:28.589Z,8.85
2023-05-08T13:01:13.892Z,10.35
2023-05-08T13:03:41.569Z,10.13
2023-05-08T13:06:21.113Z,10.02
2023-05-08T13:08:55.537Z,9.63
2023-05-08T13:11:33.555Z,10.23
2023-05-08T13:14:01.035Z,9.35
2023-05-08T13:16:28.499Z,9.65
2023-05-08T13:18:55.620Z,9.35
2023-05-08T13:21:23.044Z,9.98
2023-05-08T13:23:51.068Z,11.02
2023-05-08T13:26:18.255Z,10.77
2023-05-08T13:28:45.511Z,10.90
2023-05-08T13:31:12.639Z,11.18
2023-05-08T13:33:39.815Z,11.07
2023-05-08T13:36:07.175Z,10.77
2023-05-08T13:38:35.060Z,10.98
2023-05-08T13:41:02.227Z,10.73
2023-05-08T13:43:29.409Z,9.13
2023-05-08T13:45:56.554Z,8.88
2023-05-08T13:48:23.665Z,9.88
2023-05-08T13:50:50.828Z,10.38
2023-05-08T13:53:18.029Z,9.60
2023-05-08T13:55:45.297Z,9.55
2023-05-08T13:58:12.478Z,8.00
2023-05-08T14:00:42.800Z,9.70
2023-05-08T14:03:09.994Z,10.68
2023-05-08T14:05:37.279Z,10.10
2023-05-08T14:08:04.561Z,9.82
2023-05-08T14:10:31.698Z,9.85
2023-05-08T14:12:58.980Z,9.65
2023-05-08T14:15:31.790Z,9.45
2023-05-08T14:18:04.145Z,8.95
2023-05-08T14:20:31.400Z,9.45
2023-05-08T14:23:00.094Z,9.32
2023-05-08T14:25:27.561Z,8.85
2023-05-08T14:27:55.002Z,9.90
2023-05-08T14:30:22.090Z,9.57
2023-05-08T14:32:49.320Z,8.98
2023-05-08T14:35:16.813Z,9.10
2023-05-08T14:37:44.069Z,9.95
2023-05-08T14:40:11.409Z,9.65
2023-05-08T14:42:38.948Z,10.65
2023-05-08T14:45:06.662Z,9.93
2023-05-08T14:47:34.239Z,10.32
2023-05-08T14:50:01.555Z,9.90
2023-05-08T14:52:28.891Z,9.65
2023-05-08T14:54:56.159Z,10.50
2023-05-08T14:57:23.352Z,10.77
2023-05-08T14:59:55.124Z,10.15
2023-05-08T15:02:24.094Z,9.70
2023-05-08T15:04:51.456Z,10.27
2023-05-08T15:07:18.621Z,9.63
2023-05-08T15:09:45.923Z,9.88
2023-05-08T15:12:13.082Z,10.20
2023-05-08T15:14:40.292Z,9.50
2023-05-08T15:17:07.435Z,9.70
2023-05-08T15:19:34.565Z,9.43
2023-05-08T15:22:01.708Z,10.30
2023-05-08T15:24:28.848Z,10.18
2023-05-08T15:26:56.230Z,10.15
2023-05-08T15:29:23.386Z,8.23
2023-05-08T15:31:51.760Z,10.27
2023-05-08T15:34:18.950Z,9.85
2023-05-08T15:36:46.079Z,9.35
2023-05-08T15:39:13.732Z,10.38
2023-05-08T15:41:41.648Z,9.95
2023-05-08T15:44:08.815Z,9.73
2023-05-08T15:46:36.039Z,9.48
2023-05-08T15:49:03.323Z,10.48
2023-05-08T15:51:30.772Z,11.13
2023-05-08T15:53:58.450Z,10.70
2023-05-08T15:56:26.166Z,11.75
2023-05-08T15:58:53.770Z,11.05
2023-05-08T16:01:21.495Z,11.82
2023-05-08T16:03:48.647Z,12.20
2023-05-08T16:06:17.117Z,11.00
2023-05-08T16:08:44.352Z,11.70
2023-05-08T16:11:11.574Z,11.20
2023-05-08T16:13:38.814Z,12.00
2023-05-08T16:16:06.622Z,11.23
2023-05-08T16:18:33.914Z,11.88
2023-05-08T16:21:01.257Z,11.88
2023-05-08T16:23:28.412Z,11.18
2023-05-08T16:25:55.573Z,11.05
2023-05-08T16:28:22.662Z,10.48
2023-05-08T16:30:49.792Z,10.52
2023-05-08T16:33:16.916Z,11.68
2023-05-08T16:35:44.198Z,11.38
2023-05-08T16:38:11.469Z,10.57
2023-05-08T16:40:38.682Z,10.85
2023-05-08T16:43:05.863Z,12.20
2023-05-08T16:45:34.977Z,11.75
2023-05-08T16:48:02.897Z,10.77
2023-05-08T16:50:30.127Z,12.35
2023-05-08T16:52:57.905Z,11.48
2023-05-08T16:55:25.103Z,11.85
2023-05-08T16:57:54.202Z,12.75
2023-05-08T17:00:21.684Z,11.48
2023-05-08T17:02:48.872Z,12.80
2023-05-08T17:05:16.183Z,12.05
2023-05-08T17:07:43.401Z,12.02
2023-05-08T17:10:10.925Z,12.00
2023-05-08T17:12:38.153Z,12.57
2023-05-08T17:15:05.880Z,12.20
2023-05-08T17:17:33.054Z,11.93
2023-05-08T17:20:00.381Z,11.95
2023-05-08T17:22:27.520Z,12.75
2023-05-08T17:24:54.703Z,12.90
2023-05-08T17:27:21.955Z,12.43
2023-05-08T17:29:49.521Z,12.13
2023-05-08T17:32:16.804Z,13.10
2023-05-08T17:34:44.016Z,13.27
2023-05-08T17:37:12.157Z,12.45
2023-05-08T17:39:39.490Z,13.20
2023-05-08T17:42:06.573Z,12.40
2023-05-08T17:44:33.822Z,12.73
2023-05-08T17:47:00.921Z,13.45
2023-05-08T17:49:28.238Z,11.77
2023-05-08T17:51:55.399Z,12.80
2023-05-08T17:54:22.665Z,12.52
2023-05-08T17:56:49.863Z,12.32
2023-05-08T17:59:16.992Z,12.00
2023-05-08T18:01:44.183Z,11.20
2023-05-08T18:04:11.250Z,11.18
2023-05-08T18:06:38.475Z,12.90
2023-05-08T18:09:06.023Z,11.52
2023-05-08T18:11:33.163Z,11.15
2023-05-08T18:14:00.200Z,11.65
2023-05-08T18:16:27.423Z,10.75
2023-05-08T18:18:54.554Z,11.07
2023-05-08T18:21:21.651Z,11.18
2023-05-08T18:23:48.827Z,11.45
2023-05-08T18:26:16.851Z,10.77
2023-05-08T18:28:44.900Z,12.05
2023-05-08T18:31:13.858Z,10.95
2023-05-08T18:33:40.967Z,10.75
2023-05-08T18:36:08.188Z,11.52
2023-05-08T18:38:35.929Z,10.68
2023-05-08T18:41:04.113Z,12.95
2023-05-08T18:43:31.370Z,10.70
2023-05-08T18:46:00.890Z,11.23
2023-05-08T18:48:28.202Z,11.88
2023-05-08T18:50:59.020Z,11.80
2023-05-08T18:53:26.267Z,11.20
2023-05-08T18:55:53.391Z,11.90
2023-05-08T18:58:20.676Z,11.07
2023-05-08T19:00:47.964Z,11.20
2023-05-08T19:03:15.390Z,11.25
2023-05-08T19:05:42.670Z,10.95
2023-05-08T19:08:10.100Z,11.30
2023-05-08T19:10:37.196Z,12.40
2023-05-08T19:13:04.455Z,12.30
2023-05-08T19:15:31.676Z,12.27
2023-05-08T19:17:58.770Z,13.82
2023-05-08T19:20:26.068Z,11.98
2023-05-08T19:22:53.182Z,12.20
2023-05-08T19:25:20.602Z,12.20
2023-05-08T19:27:47.876Z,13.55
2023-05-08T19:30:15.703Z,12.80
2023-05-08T19:32:43.048Z,11.55
2023-05-08T19:35:10.413Z,13.25
2023-05-08T19:37:38.364Z,11.98
2023-05-08T19:40:06.768Z,11.57
2023-05-08T19:42:33.981Z,12.93
2023-05-08T19:45:01.694Z,12.65
2023-05-08T19:47:28.909Z,11.90
2023-05-08T19:49:56.015Z,12.63
2023-05-08T19:52:23.137Z,13.45
2023-05-08T19:54:50.353Z,12.57
2023-05-08T19:57:17.687Z,12.00
2023-05-08T19:59:44.782Z,12.00
2023-05-08T20:02:11.906Z,13.10
2023-05-08T20:04:54.598Z,12.85
2023-05-08T20:07:26.649Z,11.27
2023-05-08T20:09:53.719Z,12.85
2023-05-08T20:12:20.811Z,12.18
2023-05-08T20:14:47.928Z,11.43
2023-05-08T20:17:15.146Z,11.27
2023-05-08T20:19:42.389Z,11.65
2023-05-08T20:22:11.334Z,11.98
2023-05-08T20:24:38.398Z,10.80
2023-05-08T20:27:05.638Z,12.23
2023-05-08T20:29:32.969Z,10.95
2023-05-08T20:32:00.217Z,11.23
2023-05-08T20:34:27.386Z,10.43
2023-05-08T20:36:54.545Z,10.82
2023-05-08T20:39:21.817Z,11.32
2023-05-08T20:41:48.989Z,12.15
2023-05-08T20:44:19.448Z,12.02
2023-05-08T20:46:46.666Z,12.45
2023-05-08T20:49:14.206Z,11.57
2023-05-08T20:51:41.444Z,11.50
2023-05-08T20:54:08.634Z,11.70
2023-05-08T20:56:38.575Z,12.80
2023-05-08T20:59:05.903Z,12.85
2023-05-08T21:01:33.019Z,12.60
2023-05-08T21:04:00.138Z,11.50
2023-05-08T21:06:27.378Z,12.18
2023-05-08T21:08:54.564Z,11.50
2023-05-08T21:11:21.579Z,12.23
2023-05-08T21:13:48.738Z,12.68
2023-05-08T21:16:16.452Z,11.00
2023-05-08T21:18:43.666Z,12.25
2023-05-08T21:21:18.047Z,12.18
2023-05-08T21:23:45.169Z,12.35
2023-05-08T21:26:12.624Z,14.18
2023-05-08T21:28:39.763Z,11.80
2023-05-08T21:31:07.270Z,11.73
2023-05-08T21:33:34.511Z,11.70
2023-05-08T21:36:01.624Z,12.70
2023-05-08T21:38:28.742Z,12.15
2023-05-08T21:40:56.097Z,12.35
2023-05-08T21:43:23.239Z,11.70
2023-05-08T21:45:50.339Z,10.55
2023-05-08T21:48:17.486Z,12.70
2023-05-08T21:50:44.723Z,11.07
2023-05-08T21:53:11.890Z,12.02
2023-05-08T21:55:39.009Z,12.40
2023-05-08T21:58:06.169Z,11.68
2023-05-08T22:00:33.335Z,11.85
2023-05-08T22:03:00.571Z,11.32
2023-05-08T22:05:27.852Z,11.80
2023-05-08T22:07:55.054Z,12.88
2023-05-08T22:10:22.410Z,12.38
2023-05-08T22:12:49.571Z,12.00
2023-05-08T22:15:28.974Z,12.65
2023-05-08T22:17:57.198Z,12.23
2023-05-08T22:20:24.592Z,13.32
2023-05-08T22:22:51.768Z,14.30
2023-05-08T22:25:19.061Z,14.45
2023-05-08T22:27:46.392Z,14.02
2023-05-08T22:30:13.758Z,13.15
2023-05-08T22:32:41.074Z,13.70
2023-05-08T22:35:08.700Z,13.18
2023-05-08T22:37:35.802Z,13.38
2023-05-08T22:40:02.976Z,13.80
2023-05-08T22:42:30.198Z,14.88
2023-05-08T22:44:57.402Z,13.73
2023-05-08T22:47:26.400Z,15.25
2023-05-08T22:49:54.470Z,14.65
2023-05-08T22:52:21.636Z,15.23
2023-05-08T22:54:48.746Z,14.30
2023-05-08T22:57:15.991Z,14.23
2023-05-08T22:59:43.131Z,13.18
2023-05-08T23:02:10.335Z,14.98
2023-05-08T23:04:37.649Z,15.07
2023-05-08T23:07:04.946Z,14.70
2023-05-08T23:09:32.117Z,14.23
2023-05-08T23:11:59.270Z,13.30
2023-05-08T23:14:26.467Z,12.93
2023-05-08T23:16:53.655Z,14.45
2023-05-08T23:19:21.029Z,15.50
2023-05-08T23:21:48.191Z,15.85
2023-05-08T23:24:15.384Z,14.10
2023-05-08T23:26:42.613Z,13.77
2023-05-08T23:29:09.839Z,14.80
2023-05-08T23:31:37.033Z,14.93
2023-05-08T23:34:04.294Z,14.95
2023-05-08T23:36:32.617Z,14.98
2023-05-08T23:38:59.971Z,14.20
2023-05-08T23:41:27.379Z,13.98
2023-05-08T23:43:55.117Z,13.27
2023-05-08T23:46:22.160Z,13.32
2023-05-08T23:48:49.272Z,14.35
2023-05-08T23:51:16.358Z,14.10
2023-05-08T23:53:43.465Z,14.52
2023-05-08T23:56:10.544Z,14.45
2023-05-08T23:58:37.658Z,13.70
